Time;durP1;ratioP1;P1;durP2;ratioP2;P2;SDS_P1;SDS_P2;PMS_P1;PMS_P2;Temp;Humidity;BMP_temperature;BMP_pressure;BME280_temperature;BME280_humidity;BME280_pressure;Samples;Min_cycle;Max_cycle;Signal;HPM_P1;HPM_P2
2022/03/29 00:00:16;;;;;;;11.25;8.88;;;8.00;99.90;;;;;;5054219;28;20671;-73
2022/03/29 00:02:43;;;;;;;13.32;9.82;;;8.00;99.90;;;;;;5065557;28;20178;-73
2022/03/29 00:05:09;;;;;;;10.98;9.35;;;8.00;99.90;;;;;;5067845;28;20204;-74
2022/03/29 00:07:34;;;;;;;14.30;10.02;;;8.00;99.90;;;;;;5069034;28;20696;-74
2022/03/29 00:10:04;;;;;;;10.38;8.75;;;8.00;99.90;;;;;;5066897;28;20207;-73
2022/03/29 00:12:31;;;;;;;13.07;9.45;;;8.00;99.90;;;;;;5062211;28;20202;-73
2022/03/29 00:14:57;;;;;;;18.45;8.77;;;8.00;99.90;;;;;;5058232;28;20207;-72
2022/03/29 00:17:22;;;;;;;10.93;8.85;;;8.00;99.90;;;;;;5063489;28;20252;-74
2022/03/29 00:19:48;;;;;;;12.45;8.85;;;7.90;99.90;;;;;;5061651;28;20274;-73
2022/03/29 00:22:13;;;;;;;14.23;8.77;;;7.90;99.90;;;;;;5066695;28;20524;-74
2022/03/29 00:24:39;;;;;;;9.73;8.73;;;7.90;99.90;;;;;;5060556;28;20178;-74
2022/03/29 00:27:05;;;;;;;13.98;9.05;;;7.80;99.90;;;;;;5060992;28;20703;-74
2022/03/29 00:29:31;;;;;;;10.05;8.30;;;7.80;99.90;;;;;;5062958;28;20233;-73
2022/03/29 00:31:57;;;;;;;9.50;8.50;;;7.70;99.90;;;;;;5069782;28;20195;-73
2022/03/29 00:34:22;;;;;;;8.95;8.05;;;7.80;99.90;;;;;;5062417;28;20206;-74
2022/03/29 00:36:48;;;;;;;12.10;8.60;;;7.70;99.90;;;;;;5063606;28;20638;-73
2022/03/29 00:39:14;;;;;;;10.90;9.00;;;7.70;99.90;;;;;;5067495;28;20901;-73
2022/03/29 00:41:39;;;;;;;12.02;8.05;;;7.60;99.90;;;;;;5066601;28;20180;-73
2022/03/29 00:44:06;;;;;;;12.30;8.70;;;7.70;99.90;;;;;;5063169;28;20179;-73
2022/03/29 00:46:33;;;;;;;11.50;8.43;;;7.70;99.90;;;;;;5061116;28;20349;-74
2022/03/29 00:48:58;;;;;;;13.82;7.80;;;7.60;99.90;;;;;;5062630;28;20178;-73
2022/03/29 00:51:24;;;;;;;12.65;9.20;;;7.60;99.90;;;;;;5060896;28;20259;-74
2022/03/29 00:53:50;;;;;;;9.70;8.40;;;7.60;99.90;;;;;;5065303;28;20179;-74
2022/03/29 00:56:19;;;;;;;9.90;8.20;;;7.60;99.90;;;;;;5061679;28;20208;-74
2022/03/29 00:58:45;;;;;;;9.60;8.65;;;7.60;99.90;;;;;;5061720;28;20674;-74
2022/03/29 01:01:12;;;;;;;11.82;9.35;;;7.60;99.90;;;;;;5062205;28;20682;-74
2022/03/29 01:03:41;;;;;;;11.52;8.95;;;7.60;99.90;;;;;;5064687;28;20179;-74
2022/03/29 01:06:06;;;;;;;11.35;9.13;;;7.60;99.90;;;;;;5057347;28;20677;-74
2022/03/29 01:08:34;;;;;;;12.63;8.82;;;7.60;99.90;;;;;;5065010;28;20228;-73
2022/03/29 01:11:00;;;;;;;10.87;9.27;;;7.60;99.90;;;;;;5065763;28;20638;-73
2022/03/29 01:13:26;;;;;;;16.57;9.00;;;7.60;99.90;;;;;;5063755;28;20262;-74
2022/03/29 01:15:51;;;;;;;9.45;8.45;;;7.50;99.90;;;;;;5062726;28;20286;-73
2022/03/29 01:18:19;;;;;;;10.10;8.77;;;7.40;99.90;;;;;;5060775;28;20175;-73
2022/03/29 01:20:48;;;;;;;9.32;8.30;;;7.40;99.90;;;;;;5066528;28;20233;-74
2022/03/29 01:23:14;;;;;;;10.63;8.48;;;7.50;99.90;;;;;;5062184;28;20175;-75
2022/03/29 01:25:42;;;;;;;11.45;8.85;;;7.40;99.90;;;;;;5067061;28;20286;-74
2022/03/29 01:28:07;;;;;;;12.45;8.60;;;7.40;99.90;;;;;;5066492;28;20179;-74
2022/03/29 01:30:34;;;;;;;10.98;9.25;;;7.40;99.90;;;;;;5064155;28;20802;-75
2022/03/29 01:33:01;;;;;;;11.07;9.07;;;7.30;99.90;;;;;;5062314;28;20265;-75
2022/03/29 01:35:28;;;;;;;9.85;8.45;;;7.30;99.90;;;;;;5060627;28;20685;-74
2022/03/29 01:37:54;;;;;;;13.43;9.38;;;7.20;99.90;;;;;;5059550;28;20176;-74
2022/03/29 01:40:23;;;;;;;12.13;9.23;;;7.20;99.90;;;;;;5057371;28;21858;-74
2022/03/29 01:42:57;;;;;;;15.18;9.60;;;7.10;99.90;;;;;;5066180;28;20175;-74
2022/03/29 01:45:27;;;;;;;15.10;9.75;;;7.10;99.90;;;;;;5060019;28;20199;-74
2022/03/29 01:47:53;;;;;;;12.98;9.20;;;7.10;99.90;;;;;;5062376;28;20179;-73
2022/03/29 01:50:19;;;;;;;12.00;8.80;;;7.00;99.90;;;;;;5061492;28;20175;-75
2022/03/29 01:52:46;;;;;;;9.93;8.93;;;7.00;99.90;;;;;;5064153;28;20552;-75
2022/03/29 01:55:14;;;;;;;12.25;9.00;;;7.00;99.90;;;;;;5064432;28;20219;-74
2022/03/29 01:57:39;;;;;;;16.10;9.40;;;7.00;99.90;;;;;;5065216;28;20266;-74
2022/03/29 02:02:52;;;;;;;10.73;8.93;;;6.90;99.90;;;;;;5055254;28;20253;-74
2022/03/29 02:05:19;;;;;;;12.07;9.48;;;6.90;99.90;;;;;;5059543;28;20210;-74
2022/03/29 02:07:45;;;;;;;14.40;9.57;;;6.90;99.90;;;;;;5064396;28;20228;-73
2022/03/29 02:10:11;;;;;;;11.37;10.10;;;6.90;99.90;;;;;;5067651;28;20175;-73
2022/03/29 02:12:37;;;;;;;12.50;9.43;;;6.90;99.90;;;;;;5065677;28;20178;-73
2022/03/29 02:15:03;;;;;;;11.10;9.90;;;6.90;99.90;;;;;;5062080;28;20214;-73
2022/03/29 02:17:29;;;;;;;12.93;9.93;;;6.90;99.90;;;;;;5066703;28;20205;-73
2022/03/29 02:19:54;;;;;;;13.30;10.27;;;6.90;99.90;;;;;;5067113;28;20268;-73
2022/03/29 02:22:20;;;;;;;14.07;9.67;;;6.80;99.90;;;;;;5069675;28;20183;-73
2022/03/29 02:24:46;;;;;;;12.47;9.60;;;6.80;99.90;;;;;;5062736;28;20688;-73
2022/03/29 02:27:11;;;;;;;11.67;9.57;;;6.70;99.90;;;;;;5063838;28;20206;-73
2022/03/29 02:29:37;;;;;;;14.40;10.13;;;6.80;99.90;;;;;;5071010;28;20179;-74
2022/03/29 02:32:03;;;;;;;14.93;10.23;;;6.80;99.90;;;;;;5067216;28;20183;-74
2022/03/29 02:34:29;;;;;;;12.77;10.63;;;6.70;99.90;;;;;;5063059;28;20215;-74
2022/03/29 02:36:55;;;;;;;14.33;11.23;;;6.70;99.90;;;;;;5066942;28;20194;-74
2022/03/29 02:39:21;;;;;;;14.50;10.70;;;6.70;99.90;;;;;;5068357;28;20179;-74
2022/03/29 02:41:46;;;;;;;12.20;10.77;;;6.70;99.90;;;;;;5063302;28;20183;-74
2022/03/29 02:44:12;;;;;;;15.43;10.93;;;6.70;99.90;;;;;;5063079;28;20233;-75
2022/03/29 02:46:38;;;;;;;12.77;10.83;;;6.70;99.90;;;;;;5073615;28;20206;-74
2022/03/29 02:49:03;;;;;;;13.43;11.23;;;6.60;99.90;;;;;;5066537;28;20214;-75
2022/03/29 02:51:29;;;;;;;11.70;10.40;;;6.60;99.90;;;;;;5070336;28;20195;-74
2022/03/29 02:53:54;;;;;;;13.97;10.93;;;6.60;99.90;;;;;;5068724;28;20646;-73
2022/03/29 02:56:20;;;;;;;14.37;10.63;;;6.50;99.90;;;;;;5068038;28;20211;-73
2022/03/29 02:58:46;;;;;;;13.33;11.00;;;6.50;99.90;;;;;;5069300;28;20187;-73
2022/03/29 03:01:11;;;;;;;15.60;10.83;;;6.50;99.90;;;;;;5064848;28;20191;-73
2022/03/29 03:03:37;;;;;;;17.40;10.80;;;6.50;99.90;;;;;;5058002;28;20539;-73
2022/03/29 03:06:03;;;;;;;12.87;10.60;;;6.50;99.90;;;;;;5062040;28;20200;-73
2022/03/29 03:08:29;;;;;;;10.77;9.47;;;6.50;99.90;;;;;;5060428;28;20184;-73
2022/03/29 03:10:54;;;;;;;13.23;10.07;;;6.50;99.90;;;;;;5065599;28;20279;-73
2022/03/29 03:13:20;;;;;;;16.97;10.80;;;6.50;99.90;;;;;;5061413;28;20183;-73
2022/03/29 03:15:45;;;;;;;12.87;10.30;;;6.50;99.90;;;;;;5056369;28;20705;-72
2022/03/29 03:18:12;;;;;;;15.83;10.60;;;6.40;99.90;;;;;;5058799;28;20183;-73
2022/03/29 03:20:38;;;;;;;9.73;8.63;;;6.40;99.90;;;;;;5065776;28;20171;-73
2022/03/29 03:23:03;;;;;;;12.70;10.37;;;6.40;99.90;;;;;;5061737;28;20183;-73
2022/03/29 03:25:29;;;;;;;12.70;9.90;;;6.40;99.90;;;;;;5062947;28;20298;-72
2022/03/29 03:27:54;;;;;;;13.77;9.77;;;6.30;99.90;;;;;;5064108;28;20270;-73
2022/03/29 03:30:20;;;;;;;13.67;9.97;;;6.30;99.90;;;;;;5064459;28;20183;-74
2022/03/29 03:32:46;;;;;;;12.47;10.30;;;6.30;99.90;;;;;;5065425;28;20171;-74
2022/03/29 03:35:12;;;;;;;12.37;9.17;;;6.30;99.90;;;;;;5065692;28;20264;-74
2022/03/29 03:37:39;;;;;;;15.80;10.57;;;6.20;99.90;;;;;;5064387;28;20183;-74
2022/03/29 03:40:07;;;;;;;11.53;10.37;;;6.20;99.90;;;;;;5062469;28;20198;-74
2022/03/29 03:42:33;;;;;;;15.30;10.83;;;6.20;99.90;;;;;;5060558;28;20173;-74
2022/03/29 03:44:59;;;;;;;12.80;10.23;;;6.20;99.90;;;;;;5078440;28;20238;-74
2022/03/29 03:47:28;;;;;;;15.63;11.23;;;6.10;99.90;;;;;;5061002;28;20183;-75
2022/03/29 03:49:53;;;;;;;13.47;10.60;;;6.20;99.90;;;;;;5067254;28;20186;-74
2022/03/29 03:52:19;;;;;;;11.90;10.60;;;6.20;99.90;;;;;;5068966;28;20179;-74
2022/03/29 03:54:45;;;;;;;16.23;10.90;;;6.10;99.90;;;;;;5061343;28;20203;-75
2022/03/29 03:57:11;;;;;;;20.17;11.60;;;6.10;99.90;;;;;;5065846;28;20189;-74
2022/03/29 03:59:37;;;;;;;16.87;11.33;;;6.10;99.90;;;;;;5066274;28;20179;-73
2022/03/29 04:02:03;;;;;;;12.50;11.00;;;6.10;99.90;;;;;;5058678;28;20248;-74
2022/03/29 04:04:29;;;;;;;15.33;11.53;;;6.10;99.90;;;;;;5072391;28;20175;-73
2022/03/29 04:06:55;;;;;;;14.13;10.77;;;6.10;99.90;;;;;;5060882;28;20187;-73
2022/03/29 04:09:21;;;;;;;16.87;11.83;;;6.00;99.90;;;;;;5062005;28;20179;-72
2022/03/29 04:11:47;;;;;;;20.30;11.80;;;6.00;99.90;;;;;;5062248;28;20701;-72
2022/03/29 04:14:13;;;;;;;15.77;11.00;;;6.10;99.90;;;;;;5057722;28;20188;-72
2022/03/29 04:16:38;;;;;;;18.37;11.70;;;6.00;99.90;;;;;;5063571;28;20207;-72
2022/03/29 04:19:04;;;;;;;24.73;12.00;;;5.90;99.90;;;;;;5064255;28;20176;-72
2022/03/29 04:21:30;;;;;;;20.40;12.10;;;5.90;99.90;;;;;;5069298;28;20218;-72
2022/03/29 04:23:55;;;;;;;16.07;11.93;;;5.90;99.90;;;;;;5064750;28;20254;-74
2022/03/29 04:26:21;;;;;;;20.07;12.90;;;5.90;99.90;;;;;;5057019;28;20216;-74
2022/03/29 04:28:47;;;;;;;24.97;12.50;;;5.80;99.90;;;;;;5064643;28;20184;-73
2022/03/29 04:31:12;;;;;;;18.33;13.13;;;5.80;99.90;;;;;;5070020;28;20171;-74
2022/03/29 04:33:38;;;;;;;17.10;11.17;;;5.80;99.90;;;;;;5063968;28;20238;-74
2022/03/29 04:36:04;;;;;;;18.07;12.00;;;5.80;99.90;;;;;;5052802;28;20489;-73
2022/03/29 04:38:30;;;;;;;18.50;12.20;;;5.80;99.90;;;;;;5080880;28;20176;-73
2022/03/29 04:40:56;;;;;;;17.87;12.10;;;5.80;99.90;;;;;;5066622;28;20175;-73
2022/03/29 04:43:22;;;;;;;16.00;11.60;;;5.80;99.90;;;;;;5067171;28;20258;-73
2022/03/29 04:45:48;;;;;;;12.97;11.03;;;5.80;99.90;;;;;;5063121;28;20271;-73
2022/03/29 04:48:14;;;;;;;15.33;11.00;;;5.70;99.90;;;;;;5066292;28;20175;-73
2022/03/29 04:50:40;;;;;;;16.00;10.63;;;5.70;99.90;;;;;;5066934;28;20325;-73
2022/03/29 04:53:07;;;;;;;14.57;11.33;;;5.80;99.90;;;;;;5064686;28;20631;-73
2022/03/29 04:55:32;;;;;;;16.83;12.20;;;5.70;99.90;;;;;;5063443;28;20571;-73
2022/03/29 04:58:00;;;;;;;16.50;12.13;;;5.70;99.90;;;;;;5064176;28;20186;-73
2022/03/29 05:00:26;;;;;;;13.97;12.07;;;5.60;99.90;;;;;;5063752;28;20180;-73
2022/03/29 05:02:52;;;;;;;14.40;12.90;;;5.60;99.90;;;;;;5063520;28;20191;-74
2022/03/29 05:05:17;;;;;;;15.70;12.73;;;5.60;99.90;;;;;;5063229;28;20210;-73
2022/03/29 05:07:44;;;;;;;17.33;13.20;;;5.60;99.90;;;;;;5063783;28;20180;-72
2022/03/29 05:10:11;;;;;;;16.13;12.97;;;5.50;99.90;;;;;;5062894;28;20187;-73
2022/03/29 05:12:42;;;;;;;15.30;12.13;;;5.50;99.90;;;;;;5061171;28;20682;-73
2022/03/29 05:15:08;;;;;;;17.23;11.63;;;5.50;99.90;;;;;;5062017;28;20214;-72
2022/03/29 05:17:35;;;;;;;15.30;11.70;;;5.60;99.90;;;;;;5060419;28;20184;-73
2022/03/29 05:20:02;;;;;;;17.13;12.90;;;5.50;99.90;;;;;;5068387;28;20177;-73
2022/03/29 05:22:28;;;;;;;20.87;13.67;;;5.50;99.90;;;;;;5061674;28;20174;-74
2022/03/29 05:24:54;;;;;;;17.27;12.50;;;5.60;99.90;;;;;;5062034;28;20225;-73
2022/03/29 05:27:19;;;;;;;22.43;13.23;;;5.50;99.90;;;;;;5060354;28;20187;-73
2022/03/29 05:29:45;;;;;;;21.20;13.43;;;5.60;99.90;;;;;;5065499;28;20653;-72
2022/03/29 05:32:10;;;;;;;19.67;13.33;;;5.60;99.90;;;;;;5063413;28;20179;-71
2022/03/29 05:34:36;;;;;;;19.53;13.20;;;5.60;99.90;;;;;;5061275;28;20223;-73
2022/03/29 05:37:02;;;;;;;20.57;12.37;;;5.60;99.90;;;;;;5065728;28;20202;-73
2022/03/29 05:39:27;;;;;;;19.33;12.70;;;5.60;99.90;;;;;;5070484;28;20661;-73
2022/03/29 05:41:53;;;;;;;19.40;12.93;;;5.70;99.90;;;;;;5064238;28;20634;-73
2022/03/29 05:44:18;;;;;;;16.67;12.50;;;5.70;99.90;;;;;;5061834;28;20199;-73
2022/03/29 05:49:28;;;;;;;18.40;13.47;;;5.90;99.90;;;;;;5066074;28;20668;-73
2022/03/29 05:51:54;;;;;;;17.17;11.97;;;6.00;99.90;;;;;;5071130;28;20258;-73
2022/03/29 05:54:20;;;;;;;21.40;12.00;;;6.10;99.90;;;;;;5074999;28;20651;-72
2022/03/29 05:56:46;;;;;;;15.90;12.50;;;6.20;99.90;;;;;;5058802;28;20187;-74
2022/03/29 05:59:11;;;;;;;14.63;13.03;;;6.20;99.90;;;;;;5062994;28;20174;-73
2022/03/29 06:01:40;;;;;;;21.23;13.60;;;6.30;99.90;;;;;;5069427;28;20685;-74
2022/03/29 06:04:07;;;;;;;16.93;11.87;;;6.50;99.90;;;;;;5061346;28;20214;-74
2022/03/29 06:06:38;;;;;;;19.33;14.53;;;6.50;99.90;;;;;;5061741;28;20329;-75
2022/03/29 06:09:04;;;;;;;23.40;15.07;;;6.60;99.90;;;;;;5070003;28;20191;-74
2022/03/29 06:11:29;;;;;;;16.50;12.70;;;6.60;99.90;;;;;;5065082;28;20237;-74
2022/03/29 06:13:55;;;;;;;20.30;13.07;;;6.60;99.90;;;;;;5054438;28;20172;-73
2022/03/29 06:16:21;;;;;;;18.57;14.10;;;6.80;99.90;;;;;;5058312;28;20290;-73
2022/03/29 06:18:47;;;;;;;22.97;14.33;;;6.80;99.90;;;;;;5067846;28;20254;-73
2022/03/29 06:21:13;;;;;;;22.23;14.83;;;6.70;99.90;;;;;;5060744;28;20593;-73
2022/03/29 06:23:38;;;;;;;14.53;11.93;;;6.80;99.90;;;;;;5070674;28;20187;-75
2022/03/29 06:26:04;;;;;;;17.23;12.67;;;6.80;99.90;;;;;;5062178;28;20215;-73
2022/03/29 06:28:30;;;;;;;21.47;13.83;;;7.00;99.90;;;;;;5063060;28;20187;-73
2022/03/29 06:30:56;;;;;;;19.17;14.23;;;7.10;99.90;;;;;;5058228;28;20183;-73
2022/03/29 06:33:23;;;;;;;19.47;13.90;;;7.20;99.90;;;;;;5061034;28;20175;-73
2022/03/29 06:35:49;;;;;;;19.33;14.97;;;7.40;99.90;;;;;;5063801;28;20215;-71
2022/03/29 06:38:21;;;;;;;19.70;14.07;;;7.60;99.90;;;;;;5062083;28;20183;-73
2022/03/29 06:40:50;;;;;;;22.67;14.13;;;7.80;99.90;;;;;;5060708;28;20599;-74
2022/03/29 06:43:16;;;;;;;19.93;14.13;;;7.90;99.90;;;;;;5063025;28;20703;-74
2022/03/29 06:45:42;;;;;;;16.63;14.13;;;8.10;99.90;;;;;;5063029;28;20360;-74
2022/03/29 06:48:08;;;;;;;15.38;12.93;;;8.30;99.90;;;;;;5061567;28;20650;-74
2022/03/29 06:50:35;;;;;;;17.15;13.30;;;8.40;99.90;;;;;;5062626;28;20568;-72
2022/03/29 06:53:01;;;;;;;16.10;13.52;;;8.60;99.90;;;;;;5065980;28;20187;-74
2022/03/29 06:55:28;;;;;;;19.23;14.07;;;8.70;99.90;;;;;;5077530;28;20231;-72
2022/03/29 06:57:53;;;;;;;23.17;14.27;;;8.90;99.90;;;;;;5060807;28;20175;-72
2022/03/29 07:00:20;;;;;;;17.20;14.27;;;8.80;99.90;;;;;;5057578;28;20586;-72
2022/03/29 07:02:46;;;;;;;21.80;14.55;;;8.70;99.90;;;;;;5068258;28;20646;-72
2022/03/29 07:05:12;;;;;;;17.85;13.38;;;8.80;99.90;;;;;;5061397;28;20203;-73
2022/03/29 07:07:38;;;;;;;20.27;14.02;;;8.90;99.90;;;;;;5055515;28;20197;-72
2022/03/29 07:12:51;;;;;;;18.52;14.35;;;9.10;99.90;;;;;;5064966;28;20186;-73
2022/03/29 07:15:17;;;;;;;18.63;13.48;;;9.20;99.90;;;;;;5068659;28;20206;-73
2022/03/29 07:17:44;;;;;;;18.90;12.98;;;9.30;99.90;;;;;;5072809;28;20183;-72
2022/03/29 07:20:11;;;;;;;18.50;13.68;;;9.30;99.90;;;;;;5066459;28;20186;-73
2022/03/29 07:22:36;;;;;;;19.35;14.38;;;9.30;99.90;;;;;;5066907;28;20178;-71
2022/03/29 07:25:02;;;;;;;18.50;14.73;;;9.30;99.90;;;;;;5063089;28;20207;-70
2022/03/29 07:27:28;;;;;;;17.70;13.43;;;9.40;99.90;;;;;;5060771;28;20183;-70
2022/03/29 07:29:54;;;;;;;19.25;14.85;;;9.50;99.90;;;;;;5065261;28;20233;-72
2022/03/29 07:32:21;;;;;;;19.80;13.52;;;9.60;99.90;;;;;;5065803;28;20638;-73
2022/03/29 07:34:47;;;;;;;18.27;14.00;;;9.80;99.90;;;;;;5060739;28;20645;-73
2022/03/29 07:37:12;;;;;;;20.33;14.38;;;9.90;99.90;;;;;;5068472;28;20198;-74
2022/03/29 07:39:40;;;;;;;18.92;15.30;;;10.00;99.90;;;;;;5067307;28;20184;-73
2022/03/29 07:42:06;;;;;;;22.33;14.48;;;10.10;99.90;;;;;;5062397;28;20179;-72
2022/03/29 07:44:32;;;;;;;16.27;12.85;;;10.20;99.90;;;;;;5070947;28;20180;-72
2022/03/29 07:46:58;;;;;;;17.48;14.23;;;10.50;99.90;;;;;;5072893;28;20564;-73
2022/03/29 07:49:23;;;;;;;19.48;14.25;;;10.80;99.90;;;;;;5065744;28;20219;-73
2022/03/29 07:51:49;;;;;;;20.40;13.90;;;10.90;99.90;;;;;;5067095;28;20184;-73
2022/03/29 07:54:15;;;;;;;20.35;14.00;;;11.10;99.90;;;;;;5062577;28;20215;-72
2022/03/29 07:56:40;;;;;;;17.42;13.95;;;11.20;99.90;;;;;;5071391;28;20213;-74
2022/03/29 07:59:06;;;;;;;16.70;14.57;;;11.50;99.90;;;;;;5066528;28;20484;-73
2022/03/29 08:01:32;;;;;;;18.65;14.48;;;11.70;99.90;;;;;;5072577;28;20300;-73
2022/03/29 08:03:57;;;;;;;17.48;14.50;;;12.00;99.90;;;;;;5066830;28;20179;-72
2022/03/29 08:06:23;;;;;;;20.83;14.45;;;12.10;99.90;;;;;;5070211;28;20207;-72
2022/03/29 08:08:49;;;;;;;15.40;13.43;;;12.40;99.90;;;;;;5066492;28;20547;-75
2022/03/29 08:11:15;;;;;;;21.50;15.23;;;12.60;99.90;;;;;;5068367;28;20255;-75
2022/03/29 08:13:40;;;;;;;14.77;13.23;;;12.70;99.90;;;;;;5065957;28;20891;-73
2022/03/29 08:16:06;;;;;;;18.83;13.68;;;12.90;99.30;;;;;;5068449;28;20203;-74
2022/03/29 08:18:34;;;;;;;19.20;14.07;;;13.10;97.70;;;;;;5067562;28;20298;-72
2022/03/29 08:20:59;;;;;;;20.80;12.85;;;13.20;97.30;;;;;;5067748;28;20613;-72
2022/03/29 08:23:26;;;;;;;18.90;13.52;;;13.50;96.40;;;;;;5069066;28;20263;-73
2022/03/29 08:25:52;;;;;;;17.27;13.57;;;13.60;95.10;;;;;;5061229;28;20272;-74
2022/03/29 08:28:19;;;;;;;18.60;13.80;;;13.70;94.40;;;;;;5062598;28;20694;-71
2022/03/29 08:30:45;;;;;;;18.15;13.65;;;13.70;93.90;;;;;;5069983;28;20637;-78
2022/03/29 08:33:11;;;;;;;17.25;12.98;;;13.80;94.00;;;;;;5071841;28;20240;-73
2022/03/29 08:35:38;;;;;;;18.52;13.15;;;14.00;93.10;;;;;;5063453;28;20203;-76
2022/03/29 08:38:05;;;;;;;16.33;13.98;;;14.30;93.00;;;;;;5071715;28;20401;-76
2022/03/29 08:40:30;;;;;;;18.08;13.57;;;14.60;92.20;;;;;;5068415;28;20273;-73
2022/03/29 08:42:58;;;;;;;15.02;13.43;;;15.00;91.20;;;;;;5063601;28;20807;-73
2022/03/29 08:45:29;;;;;;;21.25;14.45;;;15.20;90.40;;;;;;5062433;28;20202;-74
2022/03/29 08:47:57;;;;;;;16.92;13.75;;;15.30;88.40;;;;;;5071115;28;20198;-73
2022/03/29 08:50:26;;;;;;;21.42;14.20;;;15.50;87.10;;;;;;5075351;28;20195;-73
2022/03/29 08:52:53;;;;;;;16.45;13.68;;;15.60;85.00;;;;;;5069397;28;20191;-73
2022/03/29 08:55:20;;;;;;;21.13;14.48;;;15.70;85.10;;;;;;5062624;28;20292;-74
2022/03/29 08:57:49;;;;;;;17.15;13.13;;;16.10;83.20;;;;;;5066482;28;20171;-74
2022/03/29 09:00:16;;;;;;;16.42;13.20;;;16.40;82.10;;;;;;5065887;28;20274;-75
2022/03/29 09:02:41;;;;;;;20.50;13.50;;;16.90;79.50;;;;;;5064399;28;20254;-74
2022/03/29 09:05:36;;;;;;;17.65;13.38;;;17.90;77.10;;;;;;5065253;28;20294;-73
2022/03/29 09:08:08;;;;;;;17.52;13.40;;;19.40;71.40;;;;;;5053177;28;20282;-75
2022/03/29 09:10:49;;;;;;;17.80;13.65;;;20.40;64.20;;;;;;5065765;28;20187;-76
2022/03/29 09:13:21;;;;;;;17.30;13.57;;;20.90;61.50;;;;;;5062654;28;20195;-75
2022/03/29 09:15:53;;;;;;;17.83;13.05;;;21.10;59.50;;;;;;5060370;28;20726;-75
2022/03/29 09:18:19;;;;;;;20.23;14.07;;;21.50;58.10;;;;;;5068149;28;20548;-75
2022/03/29 09:20:45;;;;;;;15.38;13.00;;;21.80;57.10;;;;;;5066024;28;20538;-75
2022/03/29 09:23:18;;;;;;;16.10;13.93;;;22.80;55.30;;;;;;5057707;28;20188;-78
2022/03/29 09:25:49;;;;;;;17.40;13.88;;;23.50;53.50;;;;;;5068273;28;20724;-76
2022/03/29 09:28:17;;;;;;;21.35;14.27;;;24.20;51.60;;;;;;5067875;28;20648;-74
2022/03/29 09:30:48;;;;;;;16.50;13.15;;;24.80;49.30;;;;;;5063914;28;20250;-74
2022/03/29 09:33:16;;;;;;;20.52;13.77;;;25.00;49.10;;;;;;5063962;28;20191;-74
2022/03/29 09:36:03;;;;;;;16.83;14.18;;;25.70;47.60;;;;;;5068017;28;20227;-73
2022/03/29 09:38:36;;;;;;;19.00;14.30;;;26.00;46.30;;;;;;5067495;28;20176;-74
2022/03/29 09:41:03;;;;;;;15.48;13.75;;;26.80;44.90;;;;;;5063162;28;20188;-73
2022/03/29 09:43:30;;;;;;;15.02;13.45;;;27.30;43.70;;;;;;5062027;28;20178;-75
2022/03/29 09:45:59;;;;;;;18.10;14.38;;;26.80;43.70;;;;;;5067167;28;20579;-75
2022/03/29 09:48:39;;;;;;;15.93;12.88;;;27.20;44.20;;;;;;5055117;28;20191;-74
2022/03/29 09:51:08;;;;;;;18.95;14.90;;;28.00;42.10;;;;;;5060781;28;20192;-75
2022/03/29 09:53:42;;;;;;;15.02;12.90;;;28.70;41.40;;;;;;5056611;28;20258;-75
2022/03/29 09:56:11;;;;;;;17.42;13.38;;;29.50;40.60;;;;;;5056743;28;20218;-72
2022/03/29 09:58:37;;;;;;;17.00;14.77;;;30.20;39.30;;;;;;5065877;28;20190;-73
2022/03/29 10:01:04;;;;;;;15.95;14.13;;;31.00;38.10;;;;;;5061732;28;20216;-74
2022/03/29 10:03:33;;;;;;;18.77;14.43;;;31.70;37.40;;;;;;5064946;28;20180;-73
2022/03/29 10:06:03;;;;;;;17.27;15.15;;;32.10;36.60;;;;;;5062369;28;20230;-71
2022/03/29 10:11:18;;;;;;;15.48;13.88;;;32.10;35.90;;;;;;5063890;28;20236;-70
2022/03/29 10:13:46;;;;;;;17.20;14.52;;;32.40;36.10;;;;;;5062346;28;20244;-71
2022/03/29 10:16:14;;;;;;;19.60;13.93;;;32.10;36.20;;;;;;5061576;28;20757;-71
2022/03/29 10:18:44;;;;;;;18.30;14.98;;;32.60;35.00;;;;;;5058156;28;20179;-70
2022/03/29 10:21:12;;;;;;;16.35;14.18;;;32.40;34.50;;;;;;5065546;28;20206;-70
2022/03/29 10:23:39;;;;;;;18.67;15.52;;;32.20;34.70;;;;;;5065837;28;20171;-71
2022/03/29 10:26:06;;;;;;;16.20;14.50;;;32.40;36.30;;;;;;5068256;28;20305;-71
2022/03/29 10:28:32;;;;;;;18.10;14.15;;;32.70;34.90;;;;;;5062579;28;20187;-70
2022/03/29 10:30:58;;;;;;;17.52;14.27;;;33.10;33.70;;;;;;5057979;28;20179;-71
2022/03/29 10:33:33;;;;;;;16.17;14.55;;;33.80;33.90;;;;;;5066694;28;20597;-71
2022/03/29 10:35:58;;;;;;;16.88;15.05;;;34.40;32.70;;;;;;5066598;28;20213;-71
2022/03/29 10:38:54;;;;;;;17.20;14.65;;;35.20;31.60;;;;;;5059508;28;20248;-70
2022/03/29 10:41:26;;;;;;;18.73;15.25;;;35.40;31.70;;;;;;5060357;28;20175;-70
2022/03/29 10:43:53;;;;;;;20.00;14.88;;;35.50;31.80;;;;;;5062026;28;20555;-70
2022/03/29 10:46:42;;;;;;;16.98;14.57;;;35.70;31.70;;;;;;5062139;28;20267;-70
2022/03/29 10:49:22;;;;;;;18.98;13.73;;;35.90;30.70;;;;;;5059911;28;20179;-71
2022/03/29 10:52:03;;;;;;;18.45;14.45;;;36.70;30.50;;;;;;5057437;28;20200;-67
2022/03/29 10:54:42;;;;;;;16.25;12.63;;;37.30;30.30;;;;;;5059923;28;20175;-69
2022/03/29 10:57:20;;;;;;;19.27;15.50;;;37.30;29.90;;;;;;5056893;28;20163;-68
2022/03/29 11:00:09;;;;;;;20.20;14.88;;;37.30;30.10;;;;;;5057204;28;20183;-68
2022/03/29 11:02:35;;;;;;;16.65;14.27;;;37.10;30.00;;;;;;5060194;28;20175;-69
2022/03/29 11:05:07;;;;;;;16.08;14.48;;;37.30;29.80;;;;;;5059377;28;20226;-69
2022/03/29 11:07:52;;;;;;;15.23;13.60;;;37.70;29.60;;;;;;5059795;28;20266;-69
2022/03/29 11:10:19;;;;;;;16.02;14.38;;;37.10;29.50;;;;;;5067157;28;20209;-69
2022/03/29 11:12:49;;;;;;;20.15;15.35;;;36.80;30.60;;;;;;5068159;28;20175;-69
2022/03/29 11:15:24;;;;;;;15.88;14.27;;;36.80;30.00;;;;;;5063697;28;20302;-69
2022/03/29 11:17:50;;;;;;;17.25;14.93;;;36.20;30.10;;;;;;5062665;28;20202;-69
2022/03/29 11:20:38;;;;;;;16.58;14.70;;;36.30;29.80;;;;;;5062320;28;20226;-69
2022/03/29 11:23:06;;;;;;;18.33;13.98;;;35.90;29.90;;;;;;5063568;28;20276;-69
2022/03/29 11:25:43;;;;;;;16.08;14.25;;;36.10;30.10;;;;;;5068200;28;20674;-68
2022/03/29 11:28:11;;;;;;;16.20;14.60;;;36.10;29.80;;;;;;5067305;28;20228;-68
2022/03/29 11:30:37;;;;;;;17.00;14.23;;;35.80;30.50;;;;;;5071170;28;20593;-68
2022/03/29 11:33:05;;;;;;;15.65;14.15;;;36.80;29.70;;;;;;5061356;28;20190;-69
2022/03/29 11:35:35;;;;;;;16.95;15.15;;;36.70;29.90;;;;;;5059054;28;20215;-69
2022/03/29 11:38:07;;;;;;;15.98;13.93;;;36.30;29.90;;;;;;5067837;28;20202;-68
2022/03/29 11:40:33;;;;;;;16.17;14.45;;;36.20;29.90;;;;;;5063814;28;20171;-69
2022/03/29 11:43:00;;;;;;;19.13;14.85;;;36.80;30.10;;;;;;5064647;28;20236;-69
2022/03/29 11:45:29;;;;;;;16.80;15.00;;;36.90;29.20;;;;;;5058107;28;20681;-69
2022/03/29 11:47:56;;;;;;;15.43;13.43;;;36.80;30.20;;;;;;5065974;28;20182;-67
2022/03/29 11:50:44;;;;;;;15.30;13.70;;;37.20;29.60;;;;;;5061813;28;20269;-68
2022/03/29 11:53:20;;;;;;;15.68;13.98;;;37.30;29.40;;;;;;5058530;28;20183;-67
2022/03/29 11:55:56;;;;;;;15.63;14.05;;;37.20;28.60;;;;;;5066509;28;20202;-67
2022/03/29 11:58:23;;;;;;;18.10;13.68;;;36.00;29.00;;;;;;5061503;28;21117;-68
2022/03/29 12:00:48;;;;;;;18.02;14.13;;;34.70;29.80;;;;;;5065194;28;20226;-69
2022/03/29 12:03:29;;;;;;;15.95;14.27;;;33.20;31.20;;;;;;5060172;28;20712;-71
2022/03/29 12:06:22;;;;;;;17.00;13.00;;;33.10;31.80;;;;;;5064603;28;20247;-71
2022/03/29 12:08:57;;;;;;;18.33;14.40;;;32.60;32.30;;;;;;5062241;28;20191;-69
2022/03/29 12:11:30;;;;;;;20.17;14.52;;;32.10;32.40;;;;;;5062478;28;20200;-72
2022/03/29 12:14:02;;;;;;;20.30;13.65;;;31.80;32.50;;;;;;5056471;28;20182;-72
2022/03/29 12:16:29;;;;;;;17.90;14.27;;;31.80;32.30;;;;;;5065720;28;20214;-72
2022/03/29 12:18:55;;;;;;;17.17;14.85;;;31.30;32.60;;;;;;5073067;28;20685;-72
2022/03/29 12:21:23;;;;;;;16.60;14.43;;;30.90;33.40;;;;;;5058071;28;20506;-73
2022/03/29 12:23:59;;;;;;;18.08;15.07;;;31.10;33.60;;;;;;5056683;28;20202;-72
2022/03/29 12:26:25;;;;;;;16.45;12.35;;;31.10;34.40;;;;;;5066685;28;20288;-71
2022/03/29 12:28:51;;;;;;;16.08;13.55;;;30.80;33.00;;;;;;5067743;28;20732;-71
2022/03/29 12:31:19;;;;;;;15.30;12.48;;;29.20;34.10;;;;;;5066301;28;20192;-71
2022/03/29 12:33:45;;;;;;;16.98;12.02;;;28.80;35.00;;;;;;5060852;28;20189;-72
2022/03/29 12:36:15;;;;;;;13.88;12.23;;;28.80;34.80;;;;;;5065497;28;20740;-70
2022/03/29 12:38:50;;;;;;;14.95;12.18;;;29.00;35.40;;;;;;5062720;28;20222;-70
2022/03/29 12:41:41;;;;;;;15.55;11.88;;;29.10;34.30;;;;;;5064671;28;20179;-72
2022/03/29 12:44:10;;;;;;;14.32;11.88;;;29.50;33.90;;;;;;5062908;28;20171;-70
2022/03/29 12:46:37;;;;;;;15.80;12.45;;;29.10;33.80;;;;;;5059490;28;20245;-70
2022/03/29 12:49:03;;;;;;;16.42;12.95;;;28.10;34.30;;;;;;5069936;28;20248;-70